Time;durP1;ratioP1;P1;durP2;ratioP2;P2;SDS_P1;SDS_P2;PMS_P1;PMS_P2;Temp;Humidity;BMP_temperature;BMP_pressure;BME280_temperature;BME280_humidity;BME280_pressure;Samples;Min_cycle;Max_cycle;Signal;HPM_P1;HPM_P2
2022/07/15 00:01:24;;;;;;;5.93;2.50;;;;;;;17.49;61.11;100420.97;5055114;28;20284;-88
2022/07/15 00:03:50;;;;;;;9.25;3.55;;;;;;;17.60;61.16;100421.66;5054207;28;20025;-83
2022/07/15 00:06:15;;;;;;;2.92;1.73;;;;;;;17.62;61.25;100421.34;5053882;28;20103;-84
2022/07/15 00:08:40;;;;;;;11.40;2.08;;;;;;;17.76;60.64;100418.69;5054346;28;20087;-88
2022/07/15 00:11:06;;;;;;;5.37;2.13;;;;;;;17.48;61.26;100418.50;5053338;28;20033;-89
2022/07/15 00:13:31;;;;;;;8.48;3.00;;;;;;;17.51;61.71;100423.44;5053214;28;20491;-84
2022/07/15 00:15:56;;;;;;;3.47;1.33;;;;;;;17.50;61.13;100419.84;5052878;28;20029;-84
2022/07/15 00:18:21;;;;;;;4.83;2.07;;;;;;;17.50;61.44;100421.78;5053401;28;20075;-87
2022/07/15 00:20:47;;;;;;;17.63;3.93;;;;;;;17.49;61.68;100423.72;5053203;28;20304;-86
2022/07/15 00:23:12;;;;;;;4.28;1.70;;;;;;;17.44;62.09;100414.69;5053445;28;20246;-88
2022/07/15 00:25:38;;;;;;;6.15;2.15;;;;;;;17.39;62.23;100415.56;5053507;28;20059;-89
2022/07/15 00:28:06;;;;;;;4.33;1.77;;;;;;;17.39;61.39;100416.41;5051994;28;20128;-77
2022/07/15 00:30:34;;;;;;;6.43;2.50;;;;;;;17.41;61.54;100415.31;5049489;28;20671;-77
2022/07/15 00:33:00;;;;;;;6.00;1.85;;;;;;;17.32;61.61;100410.44;5051307;28;20148;-86
2022/07/15 00:35:26;;;;;;;10.23;2.60;;;;;;;17.17;62.30;100424.41;5053902;28;20021;-86
2022/07/15 00:37:51;;;;;;;9.07;2.35;;;;;;;17.09;62.39;100415.63;5052534;28;20025;-80
2022/07/15 00:40:17;;;;;;;5.90;1.90;;;;;;;17.33;61.81;100417.59;5049687;28;20048;-79
2022/07/15 00:42:45;;;;;;;8.90;2.78;;;;;;;17.13;62.33;100413.13;5049816;28;20290;-77
2022/07/15 00:45:15;;;;;;;8.30;2.83;;;;;;;17.33;62.12;100412.06;5049031;28;20423;-77
2022/07/15 00:47:43;;;;;;;4.82;3.15;;;;;;;17.34;62.21;100413.72;5049326;28;20044;-77
2022/07/15 00:50:09;;;;;;;14.82;2.50;;;;;;;17.18;62.92;100426.88;5049210;28;20048;-77
2022/07/15 00:52:38;;;;;;;5.32;2.15;;;;;;;17.21;63.01;100414.41;5050176;28;20029;-84
2022/07/15 00:55:06;;;;;;;9.38;2.60;;;;;;;17.29;62.99;100413.78;5052970;28;20495;-83
2022/07/15 00:57:35;;;;;;;10.65;1.73;;;;;;;17.30;62.86;100423.69;5052699;28;20036;-77
2022/07/15 01:00:04;;;;;;;7.35;1.55;;;;;;;17.31;62.50;100416.25;5051288;28;20476;-77
2022/07/15 01:02:31;;;;;;;5.28;2.35;;;;;;;17.32;62.57;100415.13;5053234;28;20039;-79
2022/07/15 01:04:58;;;;;;;15.02;2.90;;;;;;;17.24;62.90;100419.34;5053867;28;20029;-79
2022/07/15 01:07:23;;;;;;;9.88;2.78;;;;;;;17.27;62.95;100418.75;5057059;28;20041;-87
2022/07/15 01:09:49;;;;;;;4.38;1.88;;;;;;;17.18;63.28;100421.34;5058462;28;20111;-86
2022/07/15 01:12:14;;;;;;;6.07;2.27;;;;;;;17.18;63.61;100420.53;5054620;28;20365;-77
2022/07/15 01:14:39;;;;;;;5.22;2.15;;;;;;;17.26;63.09;100428.16;5053011;28;20262;-77
2022/07/15 01:17:11;;;;;;;6.77;2.20;;;;;;;17.20;63.87;100423.81;5055404;28;20041;-84
2022/07/15 01:19:37;;;;;;;7.38;3.42;;;;;;;17.10;64.16;100420.03;5057200;28;20025;-84
2022/07/15 01:22:04;;;;;;;4.95;2.33;;;;;;;17.01;64.70;100416.28;5054171;28;20504;-77
2022/07/15 01:24:29;;;;;;;6.93;2.53;;;;;;;17.02;64.61;100423.44;5052886;28;20041;-76
2022/07/15 01:26:55;;;;;;;7.37;2.80;;;;;;;17.10;64.27;100422.81;5052090;28;20090;-76
2022/07/15 01:29:20;;;;;;;5.60;1.88;;;;;;;17.11;64.07;100424.44;5051864;28;20282;-76
2022/07/15 01:31:45;;;;;;;5.72;2.88;;;;;;;17.13;64.08;100430.50;5052749;28;20033;-78
2022/07/15 01:34:11;;;;;;;7.30;2.40;;;;;;;17.21;63.56;100430.94;5052600;28;20036;-77
2022/07/15 01:36:37;;;;;;;10.30;4.22;;;;;;;17.24;63.31;100425.69;5055323;28;20121;-86
2022/07/15 01:39:02;;;;;;;14.10;4.35;;;;;;;17.31;63.52;100430.84;5056393;28;20400;-86
2022/07/15 01:41:28;;;;;;;4.65;2.30;;;;;;;17.22;63.04;100427.94;5057268;28;20419;-86
2022/07/15 01:43:53;;;;;;;8.15;2.78;;;;;;;17.13;63.81;100433.25;5056786;28;20029;-86
2022/07/15 01:46:18;;;;;;;5.30;1.90;;;;;;;17.03;64.35;100430.56;5057217;28;20037;-89
2022/07/15 01:51:29;;;;;;;6.38;2.63;;;;;;;17.21;63.98;100433.72;5057247;28;20120;-84
2022/07/15 01:53:54;;;;;;;6.65;2.55;;;;;;;17.22;63.20;100435.38;5056903;28;20064;-84
2022/07/15 01:56:20;;;;;;;8.82;2.58;;;;;;;17.25;63.49;100432.84;5056242;28;20094;-84
2022/07/15 01:58:45;;;;;;;5.15;2.20;;;;;;;17.10;63.36;100425.56;5056028;28;20036;-83
2022/07/15 02:01:10;;;;;;;8.20;2.50;;;;;;;16.99;63.82;100435.03;5056747;28;20043;-86
2022/07/15 02:03:35;;;;;;;8.23;2.65;;;;;;;16.72;64.76;100436.41;5057211;28;20253;-86
2022/07/15 02:06:01;;;;;;;6.15;2.50;;;;;;;16.87;63.90;100439.00;5056743;28;20033;-86
2022/07/15 02:08:26;;;;;;;6.00;2.00;;;;;;;16.92;64.24;100430.69;5057911;28;20033;-85
2022/07/15 02:10:52;;;;;;;5.45;2.42;;;;;;;16.88;64.60;100428.81;5057456;28;20033;-76
2022/07/15 02:13:17;;;;;;;12.52;3.38;;;;;;;16.94;64.29;100432.34;5051443;28;20064;-76
2022/07/15 02:15:42;;;;;;;5.03;3.17;;;;;;;16.96;64.54;100430.13;5052561;28;20060;-86
2022/07/15 02:18:10;;;;;;;8.07;2.33;;;;;;;16.73;65.72;100427.03;5055393;28;20752;-86
2022/07/15 02:20:35;;;;;;;6.75;2.08;;;;;;;16.92;64.59;100430.69;5055670;28;20710;-78
2022/07/15 02:23:01;;;;;;;12.95;3.35;;;;;;;17.04;63.81;100432.22;5051727;28;20060;-79
2022/07/15 02:25:28;;;;;;;6.50;2.55;;;;;;;17.09;62.87;100434.91;5051901;28;20040;-89
2022/07/15 02:27:58;;;;;;;10.27;2.28;;;;;;;16.99;62.83;100433.09;5055702;28;20053;-89
2022/07/15 02:30:27;;;;;;;14.48;3.22;;;;;;;17.00;62.78;100431.19;5055823;28;20396;-77
2022/07/15 02:32:52;;;;;;;5.53;2.20;;;;;;;17.10;62.13;100428.31;5051446;28;20044;-76
2022/07/15 02:35:17;;;;;;;6.15;2.00;;;;;;;17.16;61.81;100431.84;5051124;28;20048;-76
2022/07/15 02:37:43;;;;;;;7.30;2.03;;;;;;;17.08;61.55;100430.53;5051262;28;20043;-76
2022/07/15 02:40:10;;;;;;;11.27;2.58;;;;;;;16.75;62.58;100433.91;5051742;28;20286;-79
2022/07/15 02:42:35;;;;;;;8.27;1.75;;;;;;;17.01;61.79;100427.28;5051160;28;20033;-79
2022/07/15 02:45:01;;;;;;;7.68;2.00;;;;;;;17.22;61.44;100438.13;5060748;28;20028;-87
2022/07/15 02:47:26;;;;;;;13.52;2.38;;;;;;;17.13;61.24;100430.50;5072314;28;20119;-78
2022/07/15 02:49:51;;;;;;;6.70;3.10;;;;;;;17.07;61.90;100431.63;5051585;28;20068;-79
2022/07/15 02:52:16;;;;;;;8.55;2.20;;;;;;;17.01;61.92;100427.28;5052046;28;20044;-76
2022/07/15 02:54:42;;;;;;;7.43;2.70;;;;;;;16.98;61.93;100425.13;5051237;28;20041;-76
2022/07/15 02:57:07;;;;;;;5.67;1.87;;;;;;;16.64;62.93;100435.91;5050629;28;20333;-77
2022/07/15 02:59:33;;;;;;;15.77;1.60;;;;;;;16.64;62.72;100435.91;5050453;28;20262;-76
2022/07/15 03:01:58;;;;;;;10.07;2.20;;;;;;;16.57;62.22;100440.94;5050834;28;20254;-76
2022/07/15 03:04:23;;;;;;;7.97;2.33;;;;;;;16.49;62.63;100444.31;5055647;28;20025;-88
2022/07/15 03:06:49;;;;;;;17.73;2.57;;;;;;;16.39;62.57;100437.81;5055718;28;20345;-89
2022/07/15 03:09:14;;;;;;;5.30;1.85;;;;;;;16.43;63.04;100449.06;5052257;28;20768;-79
2022/07/15 03:11:39;;;;;;;10.88;2.63;;;;;;;16.49;62.37;100456.16;5051226;28;20473;-79
2022/07/15 03:14:04;;;;;;;7.90;2.70;;;;;;;16.29;63.01;100452.44;5054192;28;20079;-87
2022/07/15 03:16:30;;;;;;;9.47;2.17;;;;;;;16.16;63.19;100450.34;5054734;28;20276;-87
2022/07/15 03:18:55;;;;;;;6.82;2.22;;;;;;;16.17;64.00;100454.75;5055046;28;20041;-84
2022/07/15 03:21:21;;;;;;;11.23;3.33;;;;;;;16.29;62.91;100448.88;5054325;28;20067;-83
2022/07/15 03:23:47;;;;;;;5.68;1.80;;;;;;;15.85;64.48;100459.56;5051885;28;20258;-78
2022/07/15 03:26:12;;;;;;;8.75;2.75;;;;;;;15.98;64.39;100469.13;5050518;28;20123;-77
2022/07/15 03:28:37;;;;;;;6.90;2.70;;;;;;;15.71;65.22;100465.69;5050026;28;20056;-78
2022/07/15 03:31:03;;;;;;;7.85;2.05;;;;;;;15.62;65.84;100467.41;5050662;28;20504;-77
2022/07/15 03:33:28;;;;;;;5.95;2.58;;;;;;;15.85;65.27;100470.56;5053628;28;20040;-88
2022/07/15 03:35:53;;;;;;;7.00;3.07;;;;;;;15.71;65.41;100471.19;5055321;28;20040;-89
2022/07/15 03:38:19;;;;;;;8.37;2.37;;;;;;;15.62;66.26;100470.94;5052715;28;20269;-77
2022/07/15 03:40:44;;;;;;;7.72;2.65;;;;;;;15.85;65.35;100476.06;5050269;28;20708;-77
2022/07/15 03:43:09;;;;;;;16.10;2.85;;;;;;;15.88;65.56;100481.81;5050516;28;20040;-77
2022/07/15 03:45:35;;;;;;;7.93;2.20;;;;;;;15.81;65.59;100481.31;5049876;28;20391;-77
2022/07/15 03:48:00;;;;;;;5.00;2.38;;;;;;;15.88;65.77;100483.78;5050298;28;20288;-77
2022/07/15 03:50:25;;;;;;;11.87;3.80;;;;;;;15.59;66.58;100490.78;5050020;28;20043;-77
2022/07/15 03:52:50;;;;;;;19.23;2.83;;;;;;;15.27;68.00;100495.56;5050067;28;20683;-76
2022/07/15 03:55:16;;;;;;;7.10;2.47;;;;;;;15.23;68.24;100494.47;5049753;28;20257;-76
2022/07/15 03:57:41;;;;;;;18.13;3.57;;;;;;;15.07;68.38;100495.59;5051101;28;20262;-84
2022/07/15 04:00:07;;;;;;;9.13;2.60;;;;;;;15.03;68.86;100503.56;5052844;28;20337;-81
2022/07/15 04:02:32;;;;;;;8.50;2.60;;;;;;;14.75;69.96;100509.31;5053802;28;20327;-77
2022/07/15 04:04:58;;;;;;;7.18;3.92;;;;;;;14.80;70.06;100509.31;5050083;28;20033;-77
2022/07/15 04:07:23;;;;;;;14.43;2.73;;;;;;;14.89;69.69;100517.03;5050033;28;20440;-84
2022/07/15 04:09:48;;;;;;;7.13;2.87;;;;;;;14.68;70.59;100522.50;5054187;28;20265;-86
2022/07/15 04:12:13;;;;;;;5.27;2.40;;;;;;;14.67;70.78;100523.56;5054293;28;20250;-88
2022/07/15 04:14:39;;;;;;;8.80;3.03;;;;;;;14.86;69.91;100512.06;5054208;28;20736;-89
2022/07/15 04:17:04;;;;;;;5.87;2.80;;;;;;;14.76;70.73;100524.69;5053779;28;20257;-89
2022/07/15 04:19:29;;;;;;;11.27;3.60;;;;;;;14.98;69.59;100509.88;5054026;28;20250;-89
2022/07/15 04:21:55;;;;;;;7.93;2.75;;;;;;;14.71;70.75;100522.75;5053518;28;20273;-89
2022/07/15 04:24:20;;;;;;;7.88;3.55;;;;;;;15.00;69.96;100529.66;5050040;28;20025;-77
2022/07/15 04:26:45;;;;;;;9.52;2.85;;;;;;;15.10;69.56;100519.72;5047639;28;20148;-77
2022/07/15 04:29:10;;;;;;;10.83;3.00;;;;;;;15.14;69.73;100529.06;5047720;28;20041;-77
2022/07/15 04:31:36;;;;;;;9.20;3.50;;;;;;;15.11;69.77;100524.94;5048001;28;20270;-77
2022/07/15 04:34:01;;;;;;;7.93;2.90;;;;;;;15.12;69.72;100534.00;5048318;28;20823;-77
2022/07/15 04:36:26;;;;;;;9.80;3.00;;;;;;;15.23;69.81;100538.41;5048472;28;20368;-77
2022/07/15 04:38:51;;;;;;;6.53;2.70;;;;;;;15.42;68.97;100540.53;5040736;28;20254;-84
2022/07/15 04:41:17;;;;;;;11.52;3.08;;;;;;;15.54;68.28;100544.94;5033815;28;20278;-84
2022/07/15 04:43:42;;;;;;;9.93;2.70;;;;;;;15.47;68.44;100542.47;5033666;28;20044;-87
2022/07/15 04:46:07;;;;;;;6.35;2.28;;;;;;;15.61;68.03;100542.69;5041244;28;20043;-87
2022/07/15 04:51:21;;;;;;;8.15;2.30;;;;;;;15.67;67.61;100558.06;5029698;28;20048;-79
2022/07/15 04:53:46;;;;;;;6.27;2.90;;;;;;;15.65;68.00;100549.28;5049582;28;20037;-76
2022/07/15 04:56:12;;;;;;;7.47;2.15;;;;;;;15.60;67.87;100550.13;5048533;28;20329;-77
2022/07/15 04:58:38;;;;;;;7.95;2.80;;;;;;;15.50;68.16;100556.47;5051810;28;20026;-89
2022/07/15 05:01:03;;;;;;;8.00;2.90;;;;;;;15.60;67.60;100552.06;5053973;28;20380;-89
2022/07/15 05:03:28;;;;;;;7.68;3.65;;;;;;;15.64;67.84;100553.16;5053912;28;20063;-87
2022/07/15 05:05:53;;;;;;;7.47;2.40;;;;;;;15.64;67.58;100555.91;5054667;28;20055;-87
2022/07/15 05:08:20;;;;;;;12.10;3.73;;;;;;;15.70;67.62;100557.50;5065714;28;20247;-87
2022/07/15 05:10:45;;;;;;;7.90;2.25;;;;;;;15.85;67.03;100555.78;5074542;28;20295;-87
2022/07/15 05:13:11;;;;;;;9.50;2.45;;;;;;;15.75;67.14;100552.00;5055966;28;20112;-76
2022/07/15 05:15:36;;;;;;;11.10;2.53;;;;;;;15.75;66.99;100549.25;5048234;28;20037;-77
2022/07/15 05:18:01;;;;;;;22.00;3.63;;;;;;;15.87;66.59;100546.16;5049095;28;20262;-78
2022/07/15 05:20:27;;;;;;;6.68;2.13;;;;;;;16.02;66.21;100551.91;5047951;28;20029;-78
2022/07/15 05:22:52;;;;;;;5.68;2.25;;;;;;;16.14;65.38;100555.16;5050953;28;20033;-86
2022/07/15 05:25:17;;;;;;;6.50;2.53;;;;;;;16.14;65.52;100552.41;5052997;28;20041;-85
2022/07/15 05:27:44;;;;;;;6.40;2.10;;;;;;;15.95;66.44;100553.00;5052076;28;20765;-85
2022/07/15 05:30:09;;;;;;;6.10;3.10;;;;;;;16.09;65.83;100546.91;5053189;28;20040;-86
2022/07/15 05:32:35;;;;;;;11.48;2.45;;;;;;;16.10;65.26;100548.56;5052846;28;20427;-83
2022/07/15 05:35:00;;;;;;;13.40;3.17;;;;;;;16.21;65.22;100547.41;5052820;28;20035;-83
2022/07/15 05:37:25;;;;;;;10.97;3.00;;;;;;;16.32;64.98;100548.19;5052219;28;20297;-77
2022/07/15 05:39:53;;;;;;;13.50;2.13;;;;;;;16.51;64.24;100546.69;5048595;28;20308;-77
2022/07/15 05:42:23;;;;;;;10.07;2.03;;;;;;;16.68;62.90;100552.59;5048696;28;20757;-77
2022/07/15 05:44:48;;;;;;;4.70;1.95;;;;;;;16.64;63.20;100559.78;5048697;28;20029;-77
2022/07/15 05:47:14;;;;;;;10.88;2.75;;;;;;;16.44;63.89;100563.50;5053178;28;20032;-87
2022/07/15 05:49:41;;;;;;;9.80;3.20;;;;;;;16.57;62.51;100562.06;5076721;28;20035;-86
2022/07/15 05:52:07;;;;;;;5.50;2.45;;;;;;;16.64;61.98;100572.72;5062757;28;20032;-88
2022/07/15 05:54:32;;;;;;;6.22;1.48;;;;;;;16.67;62.55;100567.50;5056632;28;20025;-85
2022/07/15 05:56:58;;;;;;;8.97;2.83;;;;;;;16.58;61.74;100566.44;5041499;28;20128;-87
2022/07/15 05:59:23;;;;;;;10.70;2.15;;;;;;;16.25;61.76;100560.59;5036863;28;20273;-81
2022/07/15 06:01:49;;;;;;;15.18;2.10;;;;;;;16.60;60.66;100561.47;5042822;28;20100;-80
2022/07/15 06:04:14;;;;;;;7.05;1.60;;;;;;;16.63;60.20;100566.41;5053442;28;20073;-81
2022/07/15 06:06:39;;;;;;;8.98;2.00;;;;;;;16.69;60.11;100570.78;5050966;28;20151;-81
2022/07/15 06:09:05;;;;;;;11.10;2.70;;;;;;;16.76;60.00;100556.66;5048393;28;20037;-77
2022/07/15 06:11:30;;;;;;;9.57;1.83;;;;;;;16.65;60.07;100568.88;5050363;28;20083;-78
2022/07/15 06:13:56;;;;;;;10.23;1.65;;;;;;;16.76;59.78;100569.63;5054668;28;20353;-89
2022/07/15 06:16:21;;;;;;;14.50;2.08;;;;;;;16.79;59.44;100561.63;5047174;28;20069;-88
2022/07/15 06:18:48;;;;;;;10.77;1.60;;;;;;;16.83;58.77;100566.53;5054793;28;20033;-82
2022/07/15 06:21:14;;;;;;;4.80;1.65;;;;;;;16.76;59.29;100553.13;5053943;28;20051;-81
2022/07/15 06:23:39;;;;;;;10.25;2.78;;;;;;;16.78;58.58;100557.19;5054302;28;20045;-82
2022/07/15 06:26:05;;;;;;;11.38;2.00;;;;;;;16.74;58.92;100556.13;5053703;28;20507;-81
2022/07/15 06:28:30;;;;;;;10.23;2.65;;;;;;;16.86;58.63;100558.50;5053255;28;20132;-81
2022/07/15 06:30:55;;;;;;;9.50;2.17;;;;;;;16.75;58.86;100554.22;5054072;28;20124;-81
2022/07/15 06:33:23;;;;;;;10.30;3.23;;;;;;;16.92;58.44;100551.84;5055210;28;20032;-87
2022/07/15 06:35:48;;;;;;;4.50;1.70;;;;;;;16.94;57.67;100553.50;5066313;28;20760;-87
2022/07/15 06:38:13;;;;;;;3.77;1.20;;;;;;;17.01;56.54;100548.47;5059280;28;20033;-78
2022/07/15 06:40:38;;;;;;;10.00;2.13;;;;;;;17.07;56.04;100540.97;5051957;28;20571;-78
2022/07/15 06:43:04;;;;;;;8.00;1.20;;;;;;;17.07;55.19;100547.31;5055652;28;20043;-88
2022/07/15 06:45:29;;;;;;;5.95;1.52;;;;;;;17.00;55.03;100549.59;5043250;28;20279;-87
2022/07/15 06:47:55;;;;;;;8.13;1.93;;;;;;;17.03;55.58;100547.09;5055953;28;20037;-89
2022/07/15 06:50:22;;;;;;;10.15;3.15;;;;;;;17.13;54.89;100554.47;5053896;28;20274;-89
2022/07/15 06:52:47;;;;;;;6.78;1.50;;;;;;;16.90;55.94;100551.31;5053931;28;20496;-77
2022/07/15 06:55:12;;;;;;;5.65;1.35;;;;;;;17.03;54.75;100554.53;5052052;28;20037;-77
2022/07/15 06:57:39;;;;;;;8.00;2.10;;;;;;;17.41;54.35;100553.91;5052189;28;20040;-78
2022/07/15 07:00:07;;;;;;;4.45;1.67;;;;;;;17.63;53.81;100552.59;5050713;28;20539;-78
2022/07/15 07:02:32;;;;;;;8.43;2.13;;;;;;;17.69;54.26;100545.06;5052424;28;20091;-88
2022/07/15 07:04:58;;;;;;;4.80;1.15;;;;;;;17.79;53.63;100547.69;5055131;28;20553;-88
2022/07/15 07:07:23;;;;;;;5.83;1.80;;;;;;;17.96;52.97;100549.13;5055632;28;20037;-87
2022/07/15 07:09:48;;;;;;;4.70;1.40;;;;;;;17.99;51.95;100551.31;5053264;28;20500;-88
2022/07/15 07:12:13;;;;;;;4.40;1.27;;;;;;;18.34;51.55;100553.06;5053213;28;20282;-80
2022/07/15 07:14:39;;;;;;;4.50;1.50;;;;;;;18.60;49.64;100549.91;5050253;28;20269;-80
2022/07/15 07:17:04;;;;;;;6.03;1.33;;;;;;;18.40;49.80;100551.88;5052258;28;20366;-80
2022/07/15 07:19:29;;;;;;;20.00;1.73;;;;;;;18.55;49.61;100557.16;5051198;28;20424;-79
2022/07/15 07:21:54;;;;;;;11.52;2.60;;;;;;;18.77;48.97;100566.75;5051567;28;20274;-79
2022/07/15 07:24:20;;;;;;;7.57;1.17;;;;;;;18.90;48.54;100558.81;5055151;28;20033;-89
2022/07/15 07:26:45;;;;;;;3.13;1.13;;;;;;;19.05;48.77;100552.22;5055275;28;20065;-89
2022/07/15 07:29:12;;;;;;;5.13;1.42;;;;;;;19.16;48.35;100565.91;5054951;28;20308;-89
2022/07/15 07:31:38;;;;;;;10.20;1.73;;;;;;;19.36;48.36;100561.94;5053856;28;20049;-88
2022/07/15 07:34:03;;;;;;;6.50;1.42;;;;;;;19.05;48.66;100557.75;5055331;28;20044;-93
2022/07/15 07:36:28;;;;;;;13.00;4.00;;;;;;;19.06;48.73;100566.88;5054904;28;20102;-92
2022/07/15 07:38:54;;;;;;;4.37;1.57;;;;;;;18.99;48.84;100570.84;5051547;28;20816;-77
2022/07/15 07:41:19;;;;;;;5.55;1.60;;;;;;;18.85;48.56;100567.22;5050665;28;20052;-79
2022/07/15 07:43:44;;;;;;;7.63;1.37;;;;;;;19.00;48.08;100561.41;5051684;28;20036;-87
2022/07/15 07:46:11;;;;;;;4.68;1.23;;;;;;;19.15;48.31;100565.06;5054325;28;20250;-87
2022/07/15 07:48:38;;;;;;;5.97;2.40;;;;;;;19.05;48.71;100563.28;5050736;28;20066;-80
2022/07/15 07:51:04;;;;;;;7.53;1.83;;;;;;;18.85;48.95;100561.69;5049595;28;20037;-80
2022/07/15 07:53:29;;;;;;;7.22;1.83;;;;;;;18.84;49.61;100566.38;5050472;28;20040;-79
2022/07/15 07:55:54;;;;;;;6.23;2.20;;;;;;;18.84;49.13;100568.31;5050701;28;20106;-80
2022/07/15 07:58:20;;;;;;;12.23;1.57;;;;;;;18.83;49.88;100563.94;5052764;28;20269;-87
2022/07/15 08:00:45;;;;;;;5.03;1.50;;;;;;;19.01;48.90;100573.28;5054237;28;20346;-88
2022/07/15 08:03:11;;;;;;;11.00;1.90;;;;;;;18.99;48.61;100570.84;5054251;28;20029;-87
2022/07/15 08:05:36;;;;;;;5.88;1.52;;;;;;;18.99;48.60;100573.59;5054198;28;20037;-88
2022/07/15 08:08:10;;;;;;;3.93;1.27;;;;;;;19.08;48.82;100567.38;5053878;28;20039;-88
2022/07/15 08:10:35;;;;;;;2.33;0.98;;;;;;;18.96;48.66;100568.66;5055814;28;20032;-88
2022/07/15 08:13:01;;;;;;;6.33;1.60;;;;;;;18.89;48.94;100568.25;5054314;28;20025;-79
2022/07/15 08:15:27;;;;;;;5.82;1.95;;;;;;;18.73;49.51;100568.47;5051033;28;20579;-79
2022/07/15 08:17:52;;;;;;;3.45;1.60;;;;;;;18.96;49.60;100576.97;5051466;28;20116;-92
2022/07/15 08:20:17;;;;;;;7.47;2.03;;;;;;;18.97;48.38;100575.84;5053783;28;20082;-94
2022/07/15 08:22:43;;;;;;;6.07;1.40;;;;;;;19.20;48.32;100572.47;5053552;28;20041;-81
2022/07/15 08:25:08;;;;;;;9.30;2.53;;;;;;;19.57;47.92;100561.53;5051789;28;20033;-82
2022/07/15 08:27:33;;;;;;;3.60;1.40;;;;;;;19.38;48.73;100572.69;5051505;28;20075;-81
2022/07/15 08:29:59;;;;;;;2.63;0.90;;;;;;;19.29;49.56;100575.31;5051465;28;20037;-81
2022/07/15 08:32:24;;;;;;;5.20;1.67;;;;;;;19.51;47.33;100573.81;5051637;28;20086;-88
2022/07/15 08:34:49;;;;;;;14.40;1.60;;;;;;;18.88;48.38;100574.88;5052667;28;20480;-87
2022/07/15 08:37:15;;;;;;;2.35;0.70;;;;;;;19.27;47.97;100572.03;5053457;28;20123;-77
2022/07/15 08:39:41;;;;;;;5.03;0.98;;;;;;;19.10;47.28;100565.94;5049138;28;20036;-78
2022/07/15 08:42:07;;;;;;;4.15;1.50;;;;;;;18.88;48.72;100572.13;5049403;28;20033;-79
2022/07/15 08:44:32;;;;;;;8.05;1.92;;;;;;;19.11;49.02;100575.06;5048419;28;20584;-78
2022/07/15 08:47:01;;;;;;;2.58;0.82;;;;;;;19.08;48.23;100578.44;5049605;28;20032;-78
2022/07/15 08:49:30;;;;;;;5.85;1.52;;;;;;;19.14;48.79;100580.00;5047614;28;20113;-79
2022/07/15 08:51:57;;;;;;;19.83;2.20;;;;;;;19.17;48.76;100568.34;5049589;28;20491;-77
2022/07/15 08:54:23;;;;;;;11.32;1.67;;;;;;;19.48;47.64;100570.56;5054457;28;20060;-88
2022/07/15 08:56:48;;;;;;;13.85;2.65;;;;;;;19.73;47.34;100572.31;5054765;28;20021;-88
2022/07/15 08:59:14;;;;;;;5.40;1.00;;;;;;;19.84;46.92;100570.97;5055830;28;20032;-88
2022/07/15 09:01:48;;;;;;;15.82;2.70;;;;;;;19.69;47.37;100572.91;5053984;28;20064;-89
2022/07/15 09:04:14;;;;;;;8.40;2.28;;;;;;;19.71;47.24;100576.19;5054392;28;20040;-90
2022/07/15 09:06:42;;;;;;;6.32;1.23;;;;;;;19.85;46.99;100571.78;5054176;28;20082;-89
2022/07/15 09:09:29;;;;;;;6.45;2.20;;;;;;;19.70;47.65;100571.78;5050722;28;20040;-80
2022/07/15 09:12:06;;;;;;;5.13;1.20;;;;;;;19.50;47.26;100574.94;5049400;28;20335;-80
2022/07/15 09:14:33;;;;;;;7.57;2.28;;;;;;;19.62;47.27;100571.69;5050218;28;20056;-80
2022/07/15 09:17:10;;;;;;;9.27;2.38;;;;;;;19.56;46.98;100568.19;5063446;28;20039;-81
2022/07/15 09:19:59;;;;;;;8.63;2.58;;;;;;;19.35;47.88;100568.59;5054052;28;20116;-80
2022/07/15 09:22:25;;;;;;;12.40;3.63;;;;;;;19.42;48.77;100569.00;5054221;28;20427;-80
2022/07/15 09:25:00;;;;;;;10.55;2.58;;;;;;;19.32;48.07;100571.97;5054874;28;20431;-81
2022/07/15 09:27:33;;;;;;;10.45;1.90;;;;;;;19.43;47.93;100565.09;5054126;28;22379;-81
2022/07/15 09:33:43;;;;;;;6.13;1.77;;;;;;;20.66;45.63;100555.63;5055575;28;20086;-89
2022/07/15 09:36:03;;;;;;;4.68;1.25;;;;;;;20.62;45.19;100555.44;5054421;28;20055;-88
2022/07/15 09:38:47;;;;;;;5.53;1.40;;;;;;;20.56;44.39;100556.69;5054464;28;20040;-78
2022/07/15 09:41:31;;;;;;;;;;;;;;;20.57;43.13;100566.63;5053288;28;20036;-78
2022/07/15 09:44:06;;;;;;;6.40;1.25;;;;;;;19.98;42.76;100550.75;5055698;28;19916;-92
2022/07/15 09:46:59;;;;;;;4.18;1.20;;;;;;;20.76;43.43;100557.31;5056981;28;20118;-92
2022/07/15 09:49:24;;;;;;;8.55;1.48;;;;;;;20.82;43.80;100553.28;5053879;28;20082;-79
2022/07/15 09:51:54;;;;;;;4.47;1.30;;;;;;;20.75;43.18;100550.13;5053844;28;20068;-80
2022/07/15 09:54:31;;;;;;;11.07;2.00;;;;;;;21.14;43.07;100555.28;5053448;28;20041;-80
2022/07/15 09:57:02;;;;;;;7.63;1.52;;;;;;;21.02;43.05;100562.25;5052083;28;20468;-80
2022/07/15 09:59:29;;;;;;;4.68;1.77;;;;;;;21.29;42.04;100546.56;5053087;28;20048;-80
2022/07/15 10:01:55;;;;;;;5.05;1.25;;;;;;;20.97;42.21;100556.84;5053542;28;20033;-80
2022/07/15 10:04:22;;;;;;;5.68;1.20;;;;;;;20.74;43.11;100554.03;5056799;28;20029;-92
2022/07/15 10:06:50;;;;;;;7.47;1.63;;;;;;;20.52;44.29;100553.72;5056672;28;20033;-93
2022/07/15 10:09:20;;;;;;;8.20;2.17;;;;;;;20.80;43.38;100555.56;5056153;28;20052;-88
2022/07/15 10:11:51;;;;;;;4.22;1.60;;;;;;;20.86;42.19;100539.63;5057010;28;20036;-88
2022/07/15 10:15:01;;;;;;;6.35;1.58;;;;;;;20.74;42.58;100548.50;5056867;28;20040;-88
2022/07/15 10:17:51;;;;;;;3.05;1.30;;;;;;;20.67;42.02;100548.09;5056894;28;20032;-80
2022/07/15 10:20:54;;;;;;;3.78;1.42;;;;;;;20.62;42.28;100544.34;5052197;28;20029;-80
2022/07/15 10:23:34;;;;;;;5.80;1.17;;;;;;;20.35;43.06;100546.09;5054860;28;20040;-92
2022/07/15 10:26:20;;;;;;;4.80;1.20;;;;;;;20.61;42.62;100542.72;5056615;28;20120;-91
2022/07/15 10:28:52;;;;;;;8.00;1.90;;;;;;;20.94;42.64;100547.16;5056565;28;20053;-92
2022/07/15 10:31:22;;;;;;;4.95;1.00;;;;;;;21.20;42.83;100543.75;5045751;28;20037;-92
2022/07/15 10:34:03;;;;;;;5.28;2.20;;;;;;;21.87;42.28;100536.66;5046767;28;20033;-81
2022/07/15 10:36:46;;;;;;;7.93;2.10;;;;;;;21.98;41.26;100538.00;5053053;28;20461;-82
2022/07/15 10:39:12;;;;;;;5.30;1.77;;;;;;;21.81;41.83;100534.03;5054931;28;20037;-91
2022/07/15 10:41:46;;;;;;;5.75;1.70;;;;;;;21.51;42.17;100536.53;5056314;28;20112;-92
2022/07/15 10:44:11;;;;;;;5.88;1.95;;;;;;;21.32;42.21;100539.56;5044861;28;20033;-88
2022/07/15 10:46:37;;;;;;;5.35;1.13;;;;;;;21.30;42.55;100536.28;5043819;28;20487;-87
2022/07/15 10:49:02;;;;;;;4.67;1.50;;;;;;;21.40;42.28;100533.22;5051693;28;20119;-78
2022/07/15 10:51:36;;;;;;;5.33;1.63;;;;;;;21.69;42.04;100528.28;5048766;28;20265;-78
2022/07/15 10:54:07;;;;;;;2.80;0.90;;;;;;;21.89;41.74;100532.44;5048906;28;20040;-78
2022/07/15 10:56:37;;;;;;;3.92;1.33;;;;;;;22.12;41.13;100528.69;5050997;28;20174;-78
2022/07/15 10:59:11;;;;;;;3.20;1.05;;;;;;;21.83;40.14;100522.63;5051654;28;20513;-80
2022/07/15 11:01:41;;;;;;;3.70;1.13;;;;;;;21.48;42.06;100531.63;5052434;28;20044;-82
2022/07/15 11:04:21;;;;;;;3.13;1.40;;;;;;;21.49;42.49;100530.50;5051610;28;20060;-78
2022/07/15 11:07:01;;;;;;;3.83;1.50;;;;;;;21.40;42.21;100518.56;5030779;28;20492;-78
2022/07/15 11:09:50;;;;;;;3.83;1.23;;;;;;;21.42;41.30;100513.50;5045943;28;20116;-77
2022/07/15 11:12:36;;;;;;;5.20;1.23;;;;;;;21.83;41.54;100507.91;5050852;28;20056;-77
2022/07/15 11:15:04;;;;;;;3.10;1.40;;;;;;;21.83;41.19;100514.28;5050475;28;20032;-77
2022/07/15 11:17:29;;;;;;;4.07;1.10;;;;;;;21.94;39.93;100514.81;5049908;28;20037;-81
2022/07/15 11:20:01;;;;;;;7.83;1.53;;;;;;;21.66;40.88;100503.97;5050383;28;20119;-81
2022/07/15 11:22:29;;;;;;;2.10;0.95;;;;;;;21.54;40.98;100505.38;5050845;28;20033;-91
2022/07/15 11:24:55;;;;;;;6.40;1.60;;;;;;;21.25;41.47;100512.31;5052393;28;20063;-92
2022/07/15 11:27:22;;;;;;;3.15;1.20;;;;;;;21.09;41.90;100504.38;5054671;28;20056;-82
2022/07/15 11:29:51;;;;;;;3.13;0.85;;;;;;;21.05;42.69;100499.81;5042236;28;20093;-84
2022/07/15 11:32:18;;;;;;;5.30;1.40;;;;;;;21.01;43.58;100510.72;5053953;28;20029;-90
2022/07/15 11:34:47;;;;;;;6.78;1.50;;;;;;;21.08;43.90;100505.53;5052599;28;20029;-90